Estación municipal de Queralbs (Ripollès, P.N.de les capçaleres del Ter i el Freser)

Consulta los datos en tiempo real de la estación municipal de Queralbs





Hora UTC 12:50
Temperatura 28.3 ºC
Humedad 39.0 %
Pluja 0.0 mm
Velocidad viento 8.4 km/h
Dirección viento SSE

Datos diarios 2026-09-03



Hora UTC (invierno +1h; verano +2h)
Temperatura (ºC) Humedad (%) Velocidad viento (km/h) Precipitación (mm)
Hora UTC Aire Humedad Vel. Dir. Vel. Max Dir. Intent. máx 5 min.
00:05 16.4 81.9 0.1 N 0.1 NNW 0.0
00:10 16.5 81.5 0.1 SW 2.1 SSW 0.0
00:15 16.4 81.9 1.0 NNE 2.8 NE 0.0
00:20 16.6 81.4 0.4 S 1.8 SSE 0.0
00:25 16.6 81.0 0.9 N 3.9 NNW 0.0
00:30 16.6 80.7 1.7 NNW 3.2 NNE 0.0
00:35 16.5 81.0 0.7 SSW 2.5 S 0.0
00:40 16.3 81.8 0.0 NNE 0.0 WNW 0.0
00:45 16.1 82.5 0.0 NNE 0.0 NNW 0.0
00:50 16.1 83.0 0.0 NNE 0.0 SW 0.0
00:55 16.0 83.0 0.2 NW 1.8 NW 0.0
01:00 15.9 83.3 0.0 NW 1.1 NW 0.0
01:05 15.9 83.1 0.1 NNW 1.4 NNW 0.0
01:10 15.8 83.1 0.2 W 1.8 WSW 0.0
01:15 15.8 83.7 0.2 N 1.8 N 0.0
01:20 15.8 83.4 0.2 N 1.8 N 0.0
01:25 15.8 83.7 0.6 WNW 2.8 W 0.0
01:30 15.8 83.8 1.9 NNW 3.9 NW 0.0
01:35 16.0 83.4 0.4 WNW 2.8 N 0.0
01:40 16.1 82.7 0.0 SSW 1.1 SSW 0.0
01:45 16.1 82.5 0.4 NNW 2.5 NNW 0.0
01:50 16.3 81.8 0.8 NNE 3.2 NNE 0.0
01:55 16.4 80.9 1.4 N 3.9 N 0.0
02:00 16.3 81.0 0.7 E 3.9 E 0.0
02:05 16.1 81.9 0.0 NNE 0.0 WSW 0.0
02:10 16.1 82.2 0.4 W 1.8 W 0.0
02:15 15.9 82.6 0.0 W 1.1 W 0.0
02:20 15.9 82.8 0.1 NNE 1.8 NNE 0.0
02:25 15.9 82.7 0.2 WSW 1.4 WSW 0.0
02:30 15.9 82.7 0.0 NNE 0.0 SW 0.0
02:35 15.9 82.9 0.0 NNE 0.0 W 0.0
02:40 15.9 82.5 0.0 NNE 0.0 WSW 0.0
02:45 15.8 82.6 0.3 SSE 1.4 ESE 0.0
02:50 15.8 83.2 0.4 NNW 2.5 NW 0.0
02:55 15.8 82.7 0.7 SW 2.5 S 0.0
03:00 15.9 82.8 0.0 NNE 0.0 SW 0.0
03:05 15.8 82.6 0.0 WSW 1.1 WSW 0.0
03:10 15.7 83.3 0.0 WSW 1.1 WSW 0.0
03:15 15.7 83.5 0.2 WSW 1.4 WSW 0.0
03:20 15.7 82.9 0.0 SW 1.1 WSW 0.0
03:25 15.6 83.2 0.1 WNW 1.4 WNW 0.0
03:30 15.6 83.5 1.1 WSW 2.8 WSW 0.0
03:35 15.7 83.3 1.2 W 2.8 WSW 0.0
03:40 15.8 82.9 0.0 W 1.4 W 0.0
03:45 15.8 82.4 1.1 SW 3.5 SW 0.0
03:50 15.8 82.6 0.7 N 2.8 N 0.0
03:55 15.8 82.4 0.2 NW 1.8 WNW 0.0
04:00 15.5 82.7 0.4 SW 2.5 WSW 0.0
04:05 15.3 83.8 0.2 WSW 1.8 WSW 0.0
04:10 15.2 84.4 0.0 NNE 0.0 SSW 0.0
04:15 15.0 85.0 0.0 NNE 0.0 S 0.0
04:20 15.0 85.4 0.0 NNE 0.0 W 0.0
04:25 14.9 85.3 0.3 SW 2.1 SW 0.0
04:30 14.9 85.2 0.1 NW 2.5 NW 0.0
04:35 14.9 85.1 0.0 NNE 0.0 S 0.0
04:40 14.8 85.1 1.0 W 2.8 WSW 0.0
04:45 14.9 84.9 0.4 WSW 3.2 W 0.0
04:50 15.0 83.6 0.4 SW 2.8 SW 0.0
04:55 14.9 83.7 1.0 S 2.5 SSW 0.0
05:00 14.9 84.0 0.0 NNE 0.0 SW 0.0
05:05 15.0 83.2 1.8 NNW 3.9 NNW 0.0
05:10 15.0 82.9 2.1 NW 5.3 NW 0.0
05:15 15.0 82.6 0.2 SSW 1.4 S 0.0
05:20 15.0 82.0 0.0 NNE 0.0 ESE 0.0
05:25 15.0 81.5 0.5 WSW 2.1 WSW 0.0
05:30 14.9 81.2 1.0 WNW 2.8 WNW 0.0
05:35 14.8 81.9 1.3 WSW 2.8 SSW 0.0
05:40 14.8 81.3 0.0 WSW 1.1 WSW 0.0
05:45 14.7 81.0 1.0 SSW 2.5 SSW 0.0
05:50 14.7 79.3 0.0 NNE 0.0 WSW 0.0
05:55 14.8 77.9 0.0 NNE 0.0 W 0.0
06:00 14.7 77.8 0.0 NNE 0.0 W 0.0
06:05 14.7 78.8 0.4 WNW 3.2 NNW 0.0
06:10 14.8 78.9 1.2 WNW 2.5 NW 0.0
06:15 14.9 78.5 0.1 SE 1.4 SE 0.0
06:20 15.0 78.5 0.9 SSW 3.2 SW 0.0
06:25 15.1 77.9 0.0 NNE 1.1 N 0.0
06:30 15.3 78.1 0.9 NNE 2.8 NE 0.0
06:35 16.4 73.2 1.3 SE 3.2 SSE 0.0
06:40 17.5 68.4 0.3 NE 2.5 NNE 0.0
06:45 18.5 63.3 2.0 ESE 3.9 ESE 0.0
06:50 18.9 61.1 0.4 ESE 2.5 ESE 0.0
06:55 19.0 60.3 0.7 E 2.5 E 0.0
07:00 19.4 61.3 1.2 SE 3.2 S 0.0
07:05 19.5 58.4 1.3 SSE 3.5 SE 0.0
07:10 19.9 59.4 1.4 ESE 3.9 ESE 0.0
07:15 20.1 56.4 1.8 SE 4.6 ESE 0.0
07:20 20.2 59.1 1.9 S 3.5 SSE 0.0
07:25 20.0 58.9 2.4 SSE 4.9 S 0.0
07:30 20.1 57.5 1.6 SE 4.6 ENE 0.0
07:35 20.7 52.5 1.9 ESE 4.6 NE 0.0
07:40 21.1 50.4 3.0 E 5.3 ENE 0.0
07:45 21.3 51.1 2.8 ESE 5.3 E 0.0
07:50 21.6 55.6 2.5 ESE 4.6 E 0.0
07:55 21.6 52.2 2.9 ENE 5.3 ESE 0.0
08:00 21.6 50.5 3.1 ENE 4.9 ENE 0.0
08:05 21.9 50.0 2.8 E 6.0 ESE 0.0
08:10 22.4 52.2 3.2 E 6.7 ESE 0.0
08:15 22.5 51.4 3.1 ESE 6.0 ESE 0.0
08:20 22.5 52.6 3.5 E 5.6 E 0.0
08:25 22.5 53.3 3.5 ESE 7.1 SE 0.0
08:30 22.9 53.6 3.1 ESE 6.4 E 0.0
08:35 23.0 51.4 3.5 E 6.7 ENE 0.0
08:40 22.9 54.0 4.7 SSE 9.2 SE 0.0
08:45 22.9 55.1 5.4 SE 10.9 SE 0.0
08:50 23.0 55.9 6.0 SSE 11.3 SE 0.0
08:55 23.3 54.8 5.6 SE 9.9 SE 0.0
09:00 23.5 54.7 6.4 SE 11.3 SSE 0.0
09:05 23.8 53.8 6.8 SE 11.6 SSE 0.0
09:10 23.8 53.4 8.5 SE 13.8 SE 0.0
09:15 23.8 54.1 7.1 SSE 13.1 SSE 0.0
09:20 24.3 52.9 7.6 SE 13.1 SSE 0.0
09:25 24.2 53.0 8.0 SE 14.8 SE 0.0
09:30 24.5 52.8 7.4 SE 11.6 SE 0.0
09:35 24.8 52.1 7.8 SE 14.8 SE 0.0
09:40 25.1 51.0 7.8 SE 12.7 SE 0.0
09:45 24.8 51.2 7.6 SE 12.4 SE 0.0
09:50 24.9 50.7 7.0 SE 10.6 ESE 0.0
09:55 25.2 50.1 8.1 SE 14.1 SE 0.0
10:00 25.1 50.5 7.4 SE 10.9 SSE 0.0
10:05 25.2 50.1 6.8 SE 12.0 SE 0.0
10:10 25.5 49.9 6.9 SSE 12.7 SE 0.0
10:15 25.9 47.4 7.1 SSE 11.3 SSE 0.0
10:20 25.9 47.4 8.2 SSE 12.7 SSE 0.0
10:25 25.8 47.8 7.8 SE 14.8 SE 0.0
10:30 26.2 47.2 6.4 SSE 10.6 SSE 0.0
10:35 26.1 46.0 7.9 SSE 12.4 SE 0.0
10:40 26.1 46.1 8.2 SE 13.1 ESE 0.0
10:45 26.2 46.1 8.3 SE 13.1 SE 0.0
10:50 26.5 45.2 8.6 SE 14.8 SE 0.0
10:55 26.6 44.6 8.0 SSE 12.4 SSE 0.0
11:00 26.6 44.2 9.3 SSE 14.8 SSE 0.0
11:05 26.6 44.3 8.2 SSE 15.5 SE 0.0
11:10 26.6 44.1 6.2 SSE 11.3 S 0.0
11:15 26.8 43.5 8.7 S 14.1 SSE 0.0
11:20 26.9 43.8 7.7 SSE 15.2 SSE 0.0
11:25 26.9 42.9 8.3 SSE 17.6 S 0.0
11:30 26.9 43.2 6.8 SE 14.8 SSE 0.0
11:35 27.3 42.8 9.4 SE 16.6 SE 0.0
11:40 27.4 42.6 8.9 S 13.4 SSE 0.0
11:45 27.4 42.0 7.5 SSE 13.1 S 0.0
11:50 27.6 41.2 9.3 SSE 16.9 S 0.0
11:55 27.5 40.7 8.4 SSE 14.5 S 0.0
12:00 27.8 40.3 7.2 SSE 12.0 SE 0.0
12:05 27.8 39.5 6.0 SSE 11.3 SSE 0.0
12:10 27.8 40.1 6.0 SSE 10.9 SE 0.0
12:15 28.1 39.8 6.9 SSE 12.4 S 0.0
12:20 27.9 39.8 8.2 SSE 13.8 SSE 0.0
12:25 28.4 39.3 7.0 SE 13.1 SE 0.0
12:30 28.7 38.7 8.2 SSE 15.2 SSE 0.0
12:35 28.0 39.2 9.2 S 15.2 SSE 0.0
12:40 27.8 39.8 8.4 SSE 15.2 SSE 0.0
12:45 28.2 39.0 10.2 SSE 18.7 SE 0.0
12:50 28.3 39.0 8.4 SSE 15.5 SSE 0.0
Máxima 28.7 85.4 10.2 SSE 18.7 SE 0.0
Mínima 14.7 38.7
Total 0.0